createdAt,value
2018-01-07T00:01:26.023Z,26.70
2018-01-07T00:03:53.566Z,53.73
2018-01-07T00:06:21.056Z,48.23
2018-01-07T00:08:48.567Z,49.23
2018-01-07T00:11:16.824Z,50.33
2018-01-07T00:13:45.214Z,50.57
2018-01-07T00:16:12.758Z,51.43
2018-01-07T00:18:40.276Z,54.03
2018-01-07T00:21:07.808Z,45.17
2018-01-07T00:23:35.386Z,37.63
2018-01-07T00:26:03.857Z,47.40
2018-01-07T00:28:43.917Z,34.90
2018-01-07T00:31:11.460Z,36.13
2018-01-07T00:33:38.958Z,34.53
2018-01-07T00:36:07.232Z,27.73
2018-01-07T00:38:35.508Z,30.17
2018-01-07T00:41:03.045Z,37.00
2018-01-07T00:43:30.565Z,42.53
2018-01-07T00:45:58.045Z,46.00
2018-01-07T00:48:25.517Z,48.13
2018-01-07T00:50:53.038Z,56.33
2018-01-07T00:53:21.311Z,62.50
2018-01-07T00:55:50.283Z,50.67
2018-01-07T00:58:17.749Z,47.33
2018-01-07T01:00:45.258Z,50.33
2018-01-07T01:03:12.749Z,57.70
2018-01-07T01:05:40.228Z,59.33
2018-01-07T01:08:07.682Z,47.30
2018-01-07T01:10:35.157Z,54.23
2018-01-07T01:13:02.623Z,54.37
2018-01-07T01:15:30.204Z,58.77
2018-01-07T01:17:58.456Z,62.73
2018-01-07T01:20:25.916Z,72.53
2018-01-07T01:22:53.385Z,70.63
2018-01-07T01:25:20.847Z,76.03
2018-01-07T01:27:48.318Z,78.43
2018-01-07T01:30:16.557Z,69.03
2018-01-07T01:32:44.429Z,55.77
2018-01-07T01:35:11.914Z,61.27
2018-01-07T01:37:39.401Z,75.23
2018-01-07T01:40:06.964Z,56.97
2018-01-07T01:42:34.419Z,64.53
2018-01-07T01:45:01.877Z,53.60
2018-01-07T01:47:29.353Z,48.47
2018-01-07T01:49:56.827Z,61.30
2018-01-07T01:52:25.061Z,70.23
2018-01-07T01:54:52.525Z,59.37
2018-01-07T01:57:20.032Z,56.67
2018-01-07T01:59:47.490Z,67.70
2018-01-07T02:02:14.961Z,53.63
2018-01-07T02:04:42.414Z,62.93
2018-01-07T02:07:09.877Z,60.67
2018-01-07T02:09:38.102Z,55.77
2018-01-07T02:12:05.561Z,50.43
2018-01-07T02:14:33.017Z,56.07
2018-01-07T02:17:00.483Z,59.67
2018-01-07T02:19:28.728Z,60.03
2018-01-07T02:21:56.205Z,68.40
2018-01-07T02:24:24.431Z,65.27
2018-01-07T02:26:51.886Z,67.60
2018-01-07T02:29:19.340Z,65.07
2018-01-07T02:31:46.816Z,90.77
2018-01-07T02:34:14.275Z,70.40
2018-01-07T02:36:41.779Z,72.93
2018-01-07T02:39:09.228Z,68.40
2018-01-07T02:41:36.697Z,66.27
2018-01-07T02:44:04.154Z,75.60
2018-01-07T02:46:31.639Z,73.20
2018-01-07T02:48:59.845Z,80.10
2018-01-07T02:51:27.316Z,58.70
2018-01-07T02:53:54.769Z,69.97
2018-01-07T02:56:22.256Z,61.17
2018-01-07T02:58:49.749Z,55.43
2018-01-07T03:01:18.004Z,58.30
2018-01-07T03:03:45.464Z,56.73
2018-01-07T03:06:12.942Z,56.77
2018-01-07T03:08:41.182Z,51.77
2018-01-07T03:11:08.648Z,57.10
2018-01-07T03:13:36.129Z,51.60
2018-01-07T03:16:03.589Z,50.67
2018-01-07T03:18:31.062Z,61.53
2018-01-07T03:20:58.516Z,51.27
2018-01-07T03:23:26.042Z,52.03
2018-01-07T03:25:53.499Z,49.07
2018-01-07T03:28:20.971Z,59.40
2018-01-07T03:30:48.447Z,44.67
2018-01-07T03:33:15.915Z,42.60
2018-01-07T03:35:43.364Z,39.10
2018-01-07T03:38:10.835Z,38.03
2018-01-07T03:40:38.297Z,44.63
2018-01-07T03:43:05.786Z,37.93
2018-01-07T03:45:33.261Z,49.73
2018-01-07T03:48:00.738Z,41.03
2018-01-07T03:50:28.969Z,44.70
2018-01-07T03:52:56.433Z,42.40
2018-01-07T03:55:23.892Z,44.90
2018-01-07T03:57:51.358Z,40.20
2018-01-07T04:00:18.843Z,42.73
2018-01-07T04:02:46.339Z,39.00
2018-01-07T04:05:13.815Z,46.80
2018-01-07T04:07:41.307Z,46.87
2018-01-07T04:10:08.771Z,47.80
2018-01-07T04:12:36.254Z,47.07
2018-01-07T04:15:03.714Z,40.70
2018-01-07T04:17:31.169Z,44.83
2018-01-07T04:19:58.642Z,47.10
2018-01-07T04:22:26.118Z,43.40
2018-01-07T04:24:53.578Z,50.77
2018-01-07T04:27:21.054Z,44.97
2018-01-07T04:29:49.281Z,47.73
2018-01-07T04:32:16.746Z,42.63
2018-01-07T04:34:44.258Z,45.73
2018-01-07T04:37:11.752Z,47.17
2018-01-07T04:39:39.263Z,46.97
2018-01-07T04:42:06.754Z,45.53
2018-01-07T04:44:34.985Z,47.90
2018-01-07T04:47:02.451Z,54.07
2018-01-07T04:49:40.765Z,54.00
2018-01-07T04:52:08.228Z,48.10
2018-01-07T04:54:35.814Z,45.33
2018-01-07T04:57:06.849Z,48.43
2018-01-07T04:59:34.333Z,44.60
2018-01-07T05:04:57.871Z,44.60
2018-01-07T05:07:26.706Z,40.33
2018-01-07T05:09:59.089Z,36.43
2018-01-07T05:12:28.432Z,34.93
2018-01-07T05:14:56.775Z,34.03
2018-01-07T05:17:32.816Z,38.30
2018-01-07T05:20:00.523Z,36.57
2018-01-07T05:22:28.014Z,33.27
2018-01-07T05:25:12.832Z,31.70
2018-01-07T05:27:59.901Z,32.63
2018-01-07T05:30:47.013Z,30.23
2018-01-07T05:33:16.911Z,31.63
2018-01-07T05:35:44.782Z,33.73
2018-01-07T05:38:12.244Z,34.10
2018-01-07T05:40:39.786Z,35.60
2018-01-07T05:43:07.268Z,37.47
2018-01-07T05:45:34.762Z,38.23
2018-01-07T05:48:02.239Z,37.57
2018-01-07T05:50:30.698Z,39.73
2018-01-07T05:52:59.076Z,38.23
2018-01-07T05:55:27.310Z,36.83
2018-01-07T05:57:54.927Z,37.23
2018-01-07T06:00:22.543Z,34.57
2018-01-07T06:02:50.731Z,32.77
2018-01-07T06:05:19.869Z,31.93
2018-01-07T06:07:49.124Z,32.47
2018-01-07T06:10:16.914Z,29.63
2018-01-07T06:12:46.088Z,31.53
2018-01-07T06:15:17.751Z,27.63
2018-01-07T06:17:45.230Z,29.37
2018-01-07T06:20:13.365Z,24.07
2018-01-07T06:22:40.830Z,25.27
2018-01-07T06:25:09.094Z,24.37
2018-01-07T06:45:04.542Z,26.87
2018-01-07T06:47:33.760Z,23.60
2018-01-07T06:50:02.107Z,26.47
2018-01-07T06:52:32.016Z,24.87
2018-01-07T06:55:02.937Z,26.17
2018-01-07T06:57:30.858Z,24.97
2018-01-07T06:59:58.388Z,25.23
2018-01-07T07:02:27.165Z,24.03
2018-01-07T07:04:55.658Z,22.10
2018-01-07T07:07:24.963Z,22.60
2018-01-07T07:09:53.405Z,21.83
2018-01-07T07:12:21.092Z,22.97
2018-01-07T07:15:04.464Z,26.00
2018-01-07T07:17:33.085Z,23.13
2018-01-07T07:20:01.024Z,22.87
2018-01-07T07:22:28.932Z,22.60
2018-01-07T07:24:59.975Z,24.20
2018-01-07T07:27:27.832Z,24.20
2018-01-07T07:29:55.814Z,24.37
2018-01-07T07:32:25.863Z,26.83
2018-01-07T07:34:55.355Z,28.17
2018-01-07T07:37:24.184Z,27.63
2018-01-07T07:39:52.064Z,28.50
2018-01-07T07:42:21.275Z,33.83
2018-01-07T08:10:57.246Z,30.77
2018-01-07T08:13:25.544Z,34.73
2018-01-07T08:15:54.426Z,28.67
2018-01-07T08:18:25.062Z,33.60
2018-01-07T08:20:53.562Z,30.60
2018-01-07T08:23:27.702Z,28.73
2018-01-07T08:25:56.391Z,29.47
2018-01-07T08:28:24.504Z,29.10
2018-01-07T08:30:53.148Z,27.47
2018-01-07T08:33:27.103Z,29.37
2018-01-07T08:35:58.164Z,27.60
2018-01-07T08:38:29.014Z,30.37
2018-01-07T08:40:59.053Z,31.27
2018-01-07T08:43:33.769Z,30.57
2018-01-07T08:46:06.348Z,31.97
2018-01-07T08:48:41.164Z,27.87
2018-01-07T08:51:09.531Z,25.33
2018-01-07T10:43:35.543Z,20.33
2018-01-07T10:46:13.080Z,21.73
2018-01-07T10:48:49.938Z,20.50
2018-01-07T11:00:02.456Z,18.57
2018-01-07T11:02:34.626Z,19.83
2018-01-07T11:05:07.646Z,19.27
2018-01-07T11:10:34.524Z,18.70
2018-01-07T11:13:02.210Z,19.27
2018-01-07T11:15:40.304Z,18.50
2018-01-07T11:18:08.060Z,19.20
2018-01-07T11:23:24.052Z,21.67
2018-01-07T11:25:54.234Z,23.47
2018-01-07T11:28:22.066Z,21.30
2018-01-07T11:30:49.577Z,21.40
2018-01-07T11:33:18.014Z,22.30
2018-01-07T11:35:45.587Z,23.80
2018-01-07T11:38:19.886Z,23.97
2018-01-07T12:53:10.195Z,19.80
2018-01-07T12:55:49.035Z,19.90
2018-01-07T12:58:19.924Z,19.97
2018-01-07T15:01:57.465Z,13.63
2018-01-07T15:04:37.775Z,11.60
2018-01-07T15:07:06.175Z,19.03
2018-01-07T15:09:37.974Z,14.17
2018-01-07T15:15:11.228Z,14.03
2018-01-07T15:18:16.251Z,12.83
2018-01-07T15:21:16.601Z,11.77
2018-01-07T15:23:46.630Z,12.37
2018-01-07T15:34:47.094Z,14.50
2018-01-07T16:29:32.420Z,14.23
2018-01-07T17:16:34.652Z,16.07
2018-01-07T17:36:24.753Z,17.37
2018-01-07T17:38:52.375Z,16.40
2018-01-07T17:41:20.016Z,15.10
2018-01-07T17:58:10.498Z,16.03
2018-01-07T18:00:39.844Z,14.63
2018-01-07T18:12:12.839Z,15.10
2018-01-07T18:15:01.919Z,15.93
2018-01-07T18:51:42.798Z,14.33
2018-01-07T18:54:11.420Z,15.13
2018-01-07T18:56:39.830Z,14.67
2018-01-07T19:45:08.863Z,14.57
2018-01-07T19:47:36.856Z,12.57
2018-01-07T19:50:05.133Z,13.50
2018-01-07T20:09:48.696Z,13.73
2018-01-07T20:12:16.328Z,15.93
2018-01-07T20:14:45.350Z,12.97
2018-01-07T20:17:13.303Z,13.50
2018-01-07T20:19:41.185Z,13.27
2018-01-07T20:22:08.897Z,12.90
2018-01-07T20:24:36.665Z,12.40
2018-01-07T20:27:05.563Z,13.17
2018-01-07T20:46:54.099Z,12.40
2018-01-07T20:49:21.737Z,12.73
2018-01-07T20:54:25.263Z,12.20
2018-01-07T20:56:54.095Z,13.10
2018-01-07T20:59:22.358Z,12.57
2018-01-07T21:01:58.392Z,13.07
2018-01-07T21:04:36.033Z,12.10
2018-01-07T21:07:07.685Z,11.83
2018-01-07T21:09:37.220Z,12.10
2018-01-07T21:12:05.363Z,13.03
2018-01-07T21:14:33.011Z,12.97
2018-01-07T21:17:00.666Z,13.03
2018-01-07T21:19:28.312Z,13.00
2018-01-07T21:21:55.976Z,13.07
2018-01-07T21:24:28.683Z,12.10
2018-01-07T21:44:13.536Z,14.00
2018-01-07T21:46:41.268Z,12.80
2018-01-07T21:49:08.921Z,12.93
2018-01-07T21:51:36.585Z,13.30
2018-01-07T21:54:04.249Z,12.83
2018-01-07T22:13:48.026Z,12.40
2018-01-07T22:16:15.714Z,12.63
2018-01-07T22:18:43.339Z,13.80
2018-01-07T22:21:11.009Z,11.93
2018-01-07T22:23:38.669Z,12.77
2018-01-07T22:26:06.366Z,11.83
2018-01-07T22:28:33.980Z,12.17
2018-01-07T22:31:01.617Z,13.20
2018-01-07T22:33:29.961Z,14.00
2018-01-07T22:35:57.595Z,11.47
2018-01-07T22:38:26.181Z,12.60
2018-01-07T22:40:55.841Z,12.37
2018-01-07T22:43:23.443Z,12.30
2018-01-07T22:45:51.139Z,13.83
2018-01-07T22:48:18.919Z,13.67
2018-01-07T22:50:46.506Z,13.60
2018-01-07T22:53:14.192Z,12.87
2018-01-07T22:55:43.069Z,14.37
2018-01-07T22:58:10.710Z,13.80
2018-01-07T23:00:39.277Z,13.40
2018-01-07T23:20:38.525Z,14.20
2018-01-07T23:23:06.825Z,14.97
2018-01-07T23:25:34.558Z,14.27
2018-01-07T23:28:04.198Z,14.00
2018-01-07T23:30:31.832Z,13.97
2018-01-07T23:33:02.236Z,15.70
2018-01-07T23:35:30.218Z,15.00
2018-01-07T23:37:58.064Z,14.37
2018-01-07T23:40:25.914Z,14.37
2018-01-07T23:42:53.729Z,15.47
2018-01-07T23:45:21.586Z,15.40
2018-01-07T23:47:49.324Z,15.00
2018-01-07T23:50:17.077Z,14.57
2018-01-07T23:52:44.665Z,14.67
2018-01-07T23:55:12.439Z,14.77
2018-01-07T23:57:41.137Z,13.93
